This is the latest recevied weather packets stored in our database for station/object JH0FOG-13. If no packets are shown the sender has not sent any weather packets the latest 10 day(s).
| Time | Temp. | Humidity | Pressure | Rain* | Wind** | Luminosity | Snow |
|---|---|---|---|---|---|---|---|
| 1778110804 | 22.78° C | 62% | 1014.8 hPa | 0 mm | - | - | - |
| 1778109603 | 20.56° C | 68% | 1015.1 hPa | 0 mm | - | - | - |
| 1778108403 | 18.89° C | 73% | 1015.1 hPa | 0 mm | - | - | - |
| 1778107203 | 16.67° C | 78% | 1015.4 hPa | 0 mm | - | - | - |
| 1778106003 | 15.56° C | 81% | 1015.7 hPa | 0 mm | - | - | - |
| 1778104803 | 14.44° C | 83% | 1016 hPa | 0 mm | - | - | - |
| 1778103603 | 13.33° C | 85% | 1016 hPa | 0 mm | - | - | - |
| 1778102403 | 12.78° C | 87% | 1015.9 hPa | 0 mm | - | - | - |
| 1778101203 | 12.22° C | 88% | 1015.7 hPa | 0 mm | - | - | - |
| 1778100003 | 11.67° C | 89% | 1015.5 hPa | 0 mm | - | - | - |
| 1778098804 | 11.11° C | 90% | 1015.6 hPa | 0 mm | - | - | - |
| 1778097604 | 10.56° C | 91% | 1015.6 hPa | 0 mm | - | - | - |
| 1778096401 | 10.56° C | 90% | 1015.5 hPa | 0 mm | - | - | - |
| 1778095201 | 10.56° C | 90% | 1015.6 hPa | 0 mm | - | - | - |
| 1778094001 | 10.56° C | 90% | 1015.7 hPa | 0 mm | - | - | - |
| 1778092801 | 10.56° C | 91% | 1015.7 hPa | 0 mm | - | - | - |
| 1778091601 | 10.56° C | 91% | 1015.6 hPa | 0 mm | - | - | - |
| 1778090401 | 10.56° C | 90% | 1015.4 hPa | 0 mm | - | - | - |
| 1778089201 | 10.56° C | 90% | 1015.5 hPa | 0 mm | - | - | - |
| 1778088001 | 10.56° C | 90% | 1015.7 hPa | 0 mm | - | - | - |
| 1778086801 | 10.56° C | 90% | 1015.6 hPa | 0 mm | - | - | - |
| 1778085601 | 11.11° C | 89% | 1015.6 hPa | 0 mm | - | - | - |
| 1778084401 | 11.67° C | 89% | 1015.7 hPa | 0 mm | - | - | - |
| 1778083201 | 11.67° C | 88% | 1016 hPa | 0 mm | - | - | - |
| 1778082001 | 11.67° C | 89% | 1016.2 hPa | 0 mm | - | - | - |
* Rain latest hour (hover to see other rain measurements)
** Current wind speed in m/s (hover to see current wind gust speed)